createdAt,value
2018-05-26T00:00:49.468Z,4.60
2018-05-26T00:01:49.464Z,8.80
2018-05-26T00:02:49.466Z,3.80
2018-05-26T00:03:49.462Z,6.10
2018-05-26T00:04:49.467Z,4.00
2018-05-26T00:05:49.464Z,6.90
2018-05-26T00:06:49.465Z,4.90
2018-05-26T00:07:49.461Z,3.60
2018-05-26T00:08:49.465Z,8.20
2018-05-26T00:09:49.465Z,4.40
2018-05-26T00:10:49.465Z,5.80
2018-05-26T00:11:49.464Z,5.10
2018-05-26T00:12:49.465Z,4.30
2018-05-26T00:13:49.464Z,3.80
2018-05-26T00:14:49.467Z,4.10
2018-05-26T00:15:49.462Z,3.70
2018-05-26T00:16:49.468Z,5.80
2018-05-26T00:17:49.465Z,3.70
2018-05-26T00:18:49.466Z,3.90
2018-05-26T00:19:49.465Z,4.90
2018-05-26T00:20:49.464Z,3.80
2018-05-26T00:21:49.466Z,5.00
2018-05-26T00:22:49.466Z,5.30
2018-05-26T00:23:49.464Z,4.60
2018-05-26T00:24:49.464Z,4.40
2018-05-26T00:25:49.474Z,4.40
2018-05-26T00:26:49.464Z,6.20
2018-05-26T00:27:49.469Z,4.00
2018-05-26T00:28:49.463Z,4.00
2018-05-26T00:29:49.469Z,4.10
2018-05-26T00:30:49.467Z,5.50
2018-05-26T00:31:49.463Z,4.50
2018-05-26T00:32:49.464Z,4.30
2018-05-26T00:33:49.468Z,8.80
2018-05-26T00:34:49.470Z,4.00
2018-05-26T00:35:49.466Z,5.40
2018-05-26T00:36:49.466Z,4.30
2018-05-26T00:37:49.461Z,4.00
2018-05-26T00:38:49.465Z,4.50
2018-05-26T00:39:49.466Z,4.40
2018-05-26T00:40:49.467Z,4.30
2018-05-26T00:41:49.466Z,4.30
2018-05-26T00:42:49.467Z,5.40
2018-05-26T00:43:49.466Z,6.00
2018-05-26T00:44:49.466Z,5.00
2018-05-26T00:45:49.465Z,4.00
2018-05-26T00:46:49.471Z,4.30
2018-05-26T00:47:49.465Z,5.40
2018-05-26T00:48:49.465Z,5.20
2018-05-26T00:49:49.465Z,5.20
2018-05-26T00:50:49.467Z,3.90
2018-05-26T00:51:49.466Z,5.10
2018-05-26T00:52:49.462Z,4.90
2018-05-26T00:53:49.468Z,4.40
2018-05-26T00:54:49.465Z,4.10
2018-05-26T00:55:49.465Z,4.70
2018-05-26T00:56:49.465Z,4.30
2018-05-26T00:57:49.466Z,4.40
2018-05-26T00:58:49.465Z,4.70
2018-05-26T00:59:49.465Z,4.50
2018-05-26T01:00:49.470Z,4.50
2018-05-26T01:01:49.466Z,5.30
2018-05-26T01:02:49.474Z,4.50
2018-05-26T01:03:49.469Z,4.40
2018-05-26T01:04:49.464Z,5.30
2018-05-26T01:05:49.466Z,4.20
2018-05-26T01:06:49.466Z,4.30
2018-05-26T01:07:49.463Z,4.90
2018-05-26T01:08:49.462Z,5.30
2018-05-26T01:09:49.463Z,4.20
2018-05-26T01:10:49.467Z,4.60
2018-05-26T01:11:49.463Z,4.20
2018-05-26T01:12:49.466Z,4.50
2018-05-26T01:13:49.462Z,6.10
2018-05-26T01:14:49.462Z,4.80
2018-05-26T01:15:49.461Z,4.20
2018-05-26T01:16:49.464Z,4.80
2018-05-26T01:17:49.460Z,4.20
2018-05-26T01:18:49.465Z,4.90
2018-05-26T01:19:49.460Z,7.20
2018-05-26T01:20:49.461Z,5.80
2018-05-26T01:21:49.459Z,4.40
2018-05-26T01:22:49.460Z,5.40
2018-05-26T01:23:49.458Z,4.20
2018-05-26T01:24:49.459Z,5.10
2018-05-26T01:25:49.458Z,4.40
2018-05-26T01:26:49.466Z,5.50
2018-05-26T01:27:49.457Z,6.30
2018-05-26T01:28:49.462Z,5.00
2018-05-26T01:29:49.458Z,5.30
2018-05-26T01:30:49.458Z,6.50
2018-05-26T01:31:49.462Z,4.80
2018-05-26T01:32:49.451Z,4.90
2018-05-26T01:33:49.455Z,5.40
2018-05-26T01:34:49.456Z,4.90
2018-05-26T01:35:49.454Z,6.10
2018-05-26T01:36:49.449Z,5.80
2018-05-26T01:37:49.454Z,5.40
2018-05-26T01:38:49.451Z,4.60
2018-05-26T01:39:49.451Z,4.00
2018-05-26T01:40:49.449Z,4.60
2018-05-26T01:41:49.456Z,5.40
2018-05-26T01:42:49.450Z,4.50
2018-05-26T01:43:49.447Z,4.90
2018-05-26T01:44:49.449Z,6.00
2018-05-26T01:45:49.455Z,6.30
2018-05-26T01:46:49.453Z,4.90
2018-05-26T01:47:49.444Z,5.20
2018-05-26T01:48:49.447Z,5.60
2018-05-26T01:49:49.442Z,4.90
2018-05-26T01:50:49.443Z,4.90
2018-05-26T01:51:49.440Z,4.70
2018-05-26T01:52:49.442Z,4.40
2018-05-26T01:53:49.440Z,5.40
2018-05-26T01:54:49.442Z,4.30
2018-05-26T01:55:49.438Z,6.00
2018-05-26T01:56:49.436Z,5.20
2018-05-26T01:57:49.435Z,6.80
2018-05-26T01:58:49.442Z,4.40
2018-05-26T01:59:49.440Z,4.50
2018-05-26T02:00:49.432Z,4.90
2018-05-26T02:01:49.434Z,4.50
2018-05-26T02:02:49.433Z,5.40
2018-05-26T02:03:49.424Z,4.90
2018-05-26T02:04:49.427Z,4.80
2018-05-26T02:05:49.426Z,5.00
2018-05-26T02:06:49.430Z,4.80
2018-05-26T02:07:49.434Z,4.70
2018-05-26T02:08:49.425Z,5.60
2018-05-26T02:09:49.424Z,5.70
2018-05-26T02:10:49.424Z,6.30
2018-05-26T02:11:49.423Z,4.60
2018-05-26T02:12:49.422Z,4.50
2018-05-26T02:13:49.422Z,5.70
2018-05-26T02:14:49.421Z,5.20
2018-05-26T02:15:49.420Z,4.80
2018-05-26T02:16:49.416Z,4.70
2018-05-26T02:17:49.415Z,4.50
2018-05-26T02:18:49.416Z,4.90
2018-05-26T02:19:49.411Z,5.60
2018-05-26T02:20:49.412Z,6.30
2018-05-26T02:21:49.411Z,5.00
2018-05-26T02:22:49.412Z,4.90
2018-05-26T02:23:49.408Z,5.50
2018-05-26T02:24:49.408Z,5.10
2018-05-26T02:25:49.406Z,6.20
2018-05-26T02:26:49.426Z,5.10
2018-05-26T02:27:49.406Z,5.90
2018-05-26T02:28:49.402Z,5.70
2018-05-26T02:29:49.403Z,4.80
2018-05-26T02:30:49.399Z,5.10
2018-05-26T02:31:49.399Z,4.90
2018-05-26T02:32:49.395Z,5.40
2018-05-26T02:33:49.395Z,7.50
2018-05-26T02:34:49.404Z,6.40
2018-05-26T02:35:49.394Z,5.80
2018-05-26T02:36:49.393Z,6.10
2018-05-26T02:37:49.393Z,6.10
2018-05-26T02:38:49.390Z,6.00
2018-05-26T02:39:49.390Z,6.30
2018-05-26T02:40:49.388Z,6.50
2018-05-26T02:41:49.390Z,5.80
2018-05-26T02:42:49.382Z,5.90
2018-05-26T02:43:49.383Z,5.30
2018-05-26T02:44:49.384Z,6.50
2018-05-26T02:45:49.383Z,5.50
2018-05-26T02:46:49.381Z,5.00
2018-05-26T02:47:49.378Z,5.40
2018-05-26T02:48:49.378Z,5.80
2018-05-26T02:49:49.376Z,6.50
2018-05-26T02:50:49.379Z,6.70
2018-05-26T02:51:49.377Z,6.20
2018-05-26T02:52:49.371Z,7.80
2018-05-26T02:53:49.370Z,5.60
2018-05-26T02:54:49.373Z,5.10
2018-05-26T02:55:49.363Z,6.40
2018-05-26T02:56:49.365Z,6.90
2018-05-26T02:57:49.365Z,5.20
2018-05-26T02:58:49.361Z,5.60
2018-05-26T02:59:49.358Z,6.90
2018-05-26T03:00:49.358Z,5.20
2018-05-26T03:01:49.361Z,5.10
2018-05-26T03:02:49.366Z,5.80
2018-05-26T03:03:49.363Z,5.60
2018-05-26T03:04:49.354Z,5.70
2018-05-26T03:05:49.354Z,5.40
2018-05-26T03:06:49.352Z,5.20
2018-05-26T03:07:49.344Z,5.80
2018-05-26T03:08:49.346Z,5.30
2018-05-26T03:09:49.351Z,6.30
2018-05-26T03:10:49.347Z,5.90
2018-05-26T03:11:49.351Z,5.60
2018-05-26T03:12:49.344Z,5.30
2018-05-26T03:13:49.343Z,6.60
2018-05-26T03:14:49.343Z,6.00
2018-05-26T03:15:49.343Z,6.60
2018-05-26T03:16:49.339Z,6.00
2018-05-26T03:17:49.337Z,5.20
2018-05-26T03:18:49.365Z,7.30
2018-05-26T03:19:49.339Z,5.90
2018-05-26T03:20:49.332Z,5.40
2018-05-26T03:21:49.335Z,5.40
2018-05-26T03:22:49.333Z,5.30
2018-05-26T03:23:49.327Z,5.50
2018-05-26T03:24:49.328Z,5.30
2018-05-26T03:25:49.329Z,5.70
2018-05-26T03:26:49.326Z,5.90
2018-05-26T03:27:49.325Z,5.30
2018-05-26T03:28:49.324Z,5.70
2018-05-26T03:29:49.320Z,6.00
2018-05-26T03:30:49.320Z,5.70
2018-05-26T03:31:49.323Z,5.60
2018-05-26T03:32:49.312Z,6.40
2018-05-26T03:33:49.311Z,5.50
2018-05-26T03:34:49.314Z,7.10
2018-05-26T03:35:49.312Z,5.80
2018-05-26T03:36:49.311Z,7.00
2018-05-26T03:37:49.309Z,5.50
2018-05-26T03:38:49.309Z,5.10
2018-05-26T03:39:49.306Z,6.30
2018-05-26T03:40:49.309Z,7.30
2018-05-26T03:41:49.312Z,5.70
2018-05-26T03:42:49.309Z,6.30
2018-05-26T03:43:49.302Z,5.80
2018-05-26T03:44:49.303Z,7.10
2018-05-26T03:45:49.302Z,6.00
2018-05-26T03:46:49.295Z,5.90
2018-05-26T03:47:49.298Z,5.40
2018-05-26T03:48:49.296Z,5.50
2018-05-26T03:49:49.295Z,5.70
2018-05-26T03:50:49.295Z,6.00
2018-05-26T03:51:49.292Z,8.10
2018-05-26T03:52:49.293Z,6.50
2018-05-26T03:53:49.295Z,5.60
2018-05-26T03:54:49.290Z,6.20
2018-05-26T03:55:49.287Z,6.30
2018-05-26T03:56:49.287Z,5.90
2018-05-26T03:57:49.286Z,5.40
2018-05-26T03:58:49.283Z,5.60
2018-05-26T03:59:49.280Z,5.80
2018-05-26T04:00:49.286Z,5.50
2018-05-26T04:01:49.281Z,5.70
2018-05-26T04:02:49.281Z,6.40
2018-05-26T04:03:49.280Z,6.00
2018-05-26T04:04:49.277Z,5.30
2018-05-26T04:05:49.288Z,7.70
2018-05-26T04:06:49.279Z,6.70
2018-05-26T04:07:49.273Z,5.60
2018-05-26T04:08:49.274Z,7.30
2018-05-26T04:09:49.273Z,6.80
2018-05-26T04:10:49.272Z,6.60
2018-05-26T04:11:49.273Z,5.70
2018-05-26T04:12:49.268Z,10.00
2018-05-26T04:13:49.270Z,7.30
2018-05-26T04:14:49.270Z,7.10
2018-05-26T04:15:49.270Z,7.10
2018-05-26T04:16:49.270Z,6.50
2018-05-26T04:17:49.270Z,5.70
2018-05-26T04:18:49.267Z,8.80
2018-05-26T04:19:49.265Z,7.80
2018-05-26T04:20:49.270Z,5.30
2018-05-26T04:21:49.270Z,5.70
2018-05-26T04:22:49.267Z,7.30
2018-05-26T04:23:49.266Z,5.70
2018-05-26T04:24:49.265Z,7.10
2018-05-26T04:25:49.275Z,6.80
2018-05-26T04:26:49.263Z,6.40
2018-05-26T04:27:49.263Z,4.60
2018-05-26T04:28:49.265Z,4.80
2018-05-26T04:29:49.266Z,5.10
2018-05-26T04:30:49.265Z,7.00
2018-05-26T04:31:49.269Z,5.10
2018-05-26T04:32:49.265Z,7.80
2018-05-26T04:33:49.266Z,5.60
2018-05-26T04:34:49.266Z,6.80
2018-05-26T04:35:49.271Z,7.00
2018-05-26T04:36:49.271Z,6.20
2018-05-26T04:37:49.266Z,5.00
2018-05-26T04:38:49.270Z,5.70
2018-05-26T04:39:49.269Z,5.40
2018-05-26T04:40:49.264Z,5.60
2018-05-26T04:41:49.269Z,5.20
2018-05-26T04:42:49.265Z,6.00
2018-05-26T04:43:49.270Z,5.70
2018-05-26T04:44:49.272Z,6.60
2018-05-26T04:45:49.273Z,6.50
2018-05-26T04:46:49.274Z,5.70
2018-05-26T04:47:49.275Z,5.70
2018-05-26T04:48:49.274Z,5.40
2018-05-26T04:49:49.275Z,5.30
2018-05-26T04:50:49.275Z,5.50
2018-05-26T04:51:49.277Z,5.30
2018-05-26T04:52:49.277Z,5.70
2018-05-26T04:53:49.283Z,5.60
2018-05-26T04:54:49.281Z,5.70
2018-05-26T04:55:49.275Z,7.00
2018-05-26T04:56:49.280Z,6.60
2018-05-26T04:57:49.280Z,5.60
2018-05-26T04:58:49.284Z,5.50
2018-05-26T04:59:49.279Z,5.30
2018-05-26T05:00:49.281Z,5.50
2018-05-26T05:01:49.285Z,7.00
2018-05-26T05:02:49.287Z,6.10
2018-05-26T05:03:49.285Z,6.20
2018-05-26T05:04:49.289Z,5.90
2018-05-26T05:05:49.287Z,6.00
2018-05-26T05:06:49.294Z,5.40
2018-05-26T05:07:49.292Z,5.20
2018-05-26T05:08:49.291Z,6.10
2018-05-26T05:09:49.289Z,5.80
2018-05-26T05:10:49.295Z,6.40
2018-05-26T05:11:49.301Z,5.50
2018-05-26T05:12:49.296Z,5.60
2018-05-26T05:13:49.296Z,6.40
2018-05-26T05:14:49.298Z,5.10
2018-05-26T05:15:49.306Z,5.80
2018-05-26T05:16:49.306Z,5.70
2018-05-26T05:17:49.304Z,5.20
2018-05-26T05:18:49.301Z,5.50
2018-05-26T05:19:49.304Z,5.40
2018-05-26T05:20:49.308Z,5.40
2018-05-26T05:21:49.309Z,5.20
2018-05-26T05:22:49.314Z,7.50
2018-05-26T05:23:49.312Z,5.00
2018-05-26T05:24:49.313Z,6.10
2018-05-26T05:25:49.314Z,6.00
2018-05-26T05:26:49.339Z,5.60
2018-05-26T05:27:49.319Z,5.70
2018-05-26T05:28:49.321Z,5.00
2018-05-26T05:29:49.326Z,5.10
2018-05-26T05:30:49.326Z,5.10
2018-05-26T05:31:49.326Z,6.70
2018-05-26T05:32:49.342Z,6.20
2018-05-26T05:33:49.331Z,6.50
2018-05-26T05:34:49.333Z,5.40
2018-05-26T05:35:49.337Z,5.50
2018-05-26T05:36:49.336Z,5.00
2018-05-26T05:37:49.338Z,6.70
2018-05-26T05:38:49.340Z,4.60
2018-05-26T05:39:49.346Z,5.10
2018-05-26T05:40:49.345Z,5.20
2018-05-26T05:41:49.348Z,5.10
2018-05-26T05:42:49.353Z,6.30
2018-05-26T05:43:49.352Z,5.90
2018-05-26T05:44:49.354Z,5.80
2018-05-26T05:45:49.357Z,5.50
2018-05-26T05:46:49.361Z,5.20
2018-05-26T05:47:49.364Z,5.70
2018-05-26T05:48:49.365Z,6.10
2018-05-26T05:49:49.370Z,5.10
2018-05-26T05:50:49.371Z,5.10
2018-05-26T05:51:49.376Z,5.90
2018-05-26T05:52:49.375Z,5.10
2018-05-26T05:53:49.382Z,5.40
2018-05-26T05:54:49.386Z,5.10
2018-05-26T05:55:49.384Z,5.20
2018-05-26T05:56:49.388Z,4.90
2018-05-26T05:57:49.392Z,4.70
2018-05-26T05:58:49.394Z,4.80
2018-05-26T05:59:49.395Z,4.70
2018-05-26T06:00:49.396Z,5.70
2018-05-26T06:01:49.404Z,5.00
2018-05-26T06:02:49.404Z,5.40
2018-05-26T06:03:49.406Z,4.50
2018-05-26T06:04:49.410Z,8.90
2018-05-26T06:05:49.412Z,4.70
2018-05-26T06:06:49.415Z,5.40
2018-05-26T06:07:49.419Z,4.80
2018-05-26T06:08:49.425Z,4.80
2018-05-26T06:09:49.427Z,4.40
2018-05-26T06:10:49.430Z,4.40
2018-05-26T06:11:49.432Z,5.80
2018-05-26T06:12:49.439Z,4.60
2018-05-26T06:13:49.441Z,5.40
2018-05-26T06:14:49.466Z,5.00
2018-05-26T06:15:49.458Z,4.20
2018-05-26T06:16:49.454Z,4.90
2018-05-26T06:17:49.455Z,4.50
2018-05-26T06:18:49.458Z,5.30
2018-05-26T06:19:49.462Z,4.30
2018-05-26T06:20:49.466Z,4.70
2018-05-26T06:21:49.468Z,5.00
2018-05-26T06:22:49.473Z,4.80
2018-05-26T06:23:49.483Z,5.20
2018-05-26T06:24:49.486Z,4.50
2018-05-26T06:25:49.493Z,5.70
2018-05-26T06:26:49.489Z,4.40
2018-05-26T06:27:49.493Z,4.00
2018-05-26T06:28:49.499Z,5.60
2018-05-26T06:29:49.501Z,4.70
2018-05-26T06:30:49.507Z,4.80
2018-05-26T06:31:49.563Z,4.20
2018-05-26T06:32:49.519Z,4.30
2018-05-26T06:33:49.531Z,4.20
2018-05-26T06:34:49.526Z,4.50
2018-05-26T06:35:49.573Z,5.90
2018-05-26T06:36:49.532Z,5.90
2018-05-26T06:37:49.539Z,4.20
2018-05-26T06:38:49.544Z,6.20
2018-05-26T06:39:49.549Z,5.10
2018-05-26T06:40:49.554Z,3.90
2018-05-26T06:41:49.558Z,3.80
2018-05-26T06:42:49.560Z,4.10
2018-05-26T06:43:49.565Z,4.10
2018-05-26T06:44:49.583Z,4.10
2018-05-26T06:45:49.582Z,4.30
2018-05-26T06:46:49.584Z,4.40
2018-05-26T06:47:49.588Z,3.70
2018-05-26T06:48:49.596Z,3.60
2018-05-26T06:49:49.604Z,4.00
2018-05-26T06:50:49.607Z,4.20
2018-05-26T06:51:49.612Z,3.80
2018-05-26T06:52:49.619Z,3.60
2018-05-26T06:53:49.625Z,3.60
2018-05-26T06:54:49.631Z,4.60
2018-05-26T06:55:49.637Z,4.10
2018-05-26T06:56:49.651Z,3.40
2018-05-26T06:57:49.649Z,4.40
2018-05-26T06:58:49.654Z,3.50
2018-05-26T06:59:49.660Z,3.80
2018-05-26T07:00:49.668Z,4.20
2018-05-26T07:01:49.674Z,4.00
2018-05-26T07:02:49.680Z,3.70
2018-05-26T07:03:49.682Z,2.90
2018-05-26T07:04:49.693Z,3.20
2018-05-26T07:05:49.699Z,3.40
2018-05-26T07:06:49.708Z,3.50
2018-05-26T07:07:49.710Z,3.70
2018-05-26T07:08:49.718Z,3.70
2018-05-26T07:09:49.725Z,3.20
2018-05-26T07:10:49.758Z,3.50
2018-05-26T07:11:49.740Z,3.50
2018-05-26T07:12:49.748Z,3.80
2018-05-26T07:13:49.753Z,3.30
2018-05-26T07:14:49.760Z,3.50
2018-05-26T07:15:49.764Z,3.50
2018-05-26T07:16:49.772Z,3.20
2018-05-26T07:17:49.781Z,3.90
2018-05-26T07:18:49.788Z,4.30
2018-05-26T07:19:49.795Z,3.90
2018-05-26T07:20:49.804Z,4.50
2018-05-26T07:21:49.810Z,3.80
2018-05-26T07:22:49.821Z,3.20
2018-05-26T07:23:49.825Z,3.00
2018-05-26T07:24:49.834Z,3.00
2018-05-26T07:25:49.841Z,2.90
2018-05-26T07:26:49.857Z,3.50
2018-05-26T07:27:49.894Z,4.00
2018-05-26T07:28:49.865Z,3.10
2018-05-26T07:29:49.871Z,3.30
2018-05-26T07:30:49.879Z,3.20
2018-05-26T07:31:49.886Z,4.30
2018-05-26T07:32:49.893Z,3.90
2018-05-26T07:33:49.963Z,3.20
2018-05-26T07:34:49.909Z,3.30
2018-05-26T07:35:49.916Z,4.90
2018-05-26T07:36:49.924Z,3.80
2018-05-26T07:37:49.937Z,3.30
2018-05-26T07:38:49.944Z,5.50
2018-05-26T07:39:49.954Z,3.30
2018-05-26T07:40:49.962Z,5.30
2018-05-26T07:41:49.972Z,3.10
2018-05-26T07:42:49.979Z,2.90
2018-05-26T07:43:49.986Z,3.50
2018-05-26T07:44:49.999Z,3.90
2018-05-26T07:45:50.005Z,2.90
2018-05-26T07:46:50.020Z,3.10
2018-05-26T07:47:50.023Z,2.90
2018-05-26T07:48:50.033Z,5.70
2018-05-26T07:49:50.041Z,3.00
2018-05-26T07:50:50.067Z,3.20
2018-05-26T07:51:50.059Z,3.10
2018-05-26T07:52:50.067Z,3.20
2018-05-26T07:53:50.125Z,3.10
2018-05-26T07:54:50.092Z,4.00
2018-05-26T07:55:50.098Z,3.70
2018-05-26T07:56:50.105Z,4.00
2018-05-26T07:57:50.188Z,3.00
2018-05-26T07:58:50.157Z,2.90
2018-05-26T07:59:50.135Z,2.80
2018-05-26T08:00:50.193Z,3.20
2018-05-26T08:01:50.148Z,3.30
2018-05-26T08:02:50.160Z,3.20
2018-05-26T08:03:50.168Z,3.00
2018-05-26T08:04:50.176Z,3.40
2018-05-26T08:05:50.186Z,4.40
2018-05-26T08:06:50.197Z,3.70
2018-05-26T08:07:50.213Z,4.00
2018-05-26T08:08:50.216Z,3.00
2018-05-26T08:09:50.227Z,2.90
2018-05-26T08:10:50.265Z,3.00
2018-05-26T08:11:50.242Z,3.10
2018-05-26T08:12:50.266Z,3.00
2018-05-26T08:13:50.264Z,3.50
2018-05-26T08:14:50.274Z,3.20
2018-05-26T08:15:50.286Z,2.80
2018-05-26T08:16:50.290Z,2.50
2018-05-26T08:17:50.301Z,2.40
2018-05-26T08:18:50.308Z,2.60
2018-05-26T08:19:50.321Z,2.80
2018-05-26T08:20:50.336Z,2.70
2018-05-26T08:21:50.342Z,2.90
2018-05-26T08:22:50.354Z,2.30
2018-05-26T08:23:50.365Z,2.30
2018-05-26T08:24:50.374Z,2.30
2018-05-26T08:25:50.384Z,2.20
2018-05-26T08:26:50.395Z,2.00
2018-05-26T08:27:50.404Z,1.90
2018-05-26T08:28:50.422Z,2.10
2018-05-26T08:29:50.430Z,2.20
2018-05-26T08:30:50.439Z,2.30
2018-05-26T08:31:50.445Z,3.80
2018-05-26T08:32:50.459Z,3.00
2018-05-26T08:33:50.515Z,2.30
2018-05-26T08:34:50.482Z,2.20
2018-05-26T08:35:50.489Z,2.10
2018-05-26T08:36:50.499Z,2.40
2018-05-26T08:37:50.510Z,2.40
2018-05-26T08:38:50.521Z,2.80
2018-05-26T08:39:50.531Z,2.90
2018-05-26T08:40:50.544Z,3.10
2018-05-26T08:41:50.553Z,3.20
2018-05-26T08:42:50.562Z,2.30
2018-05-26T08:43:50.576Z,2.40
2018-05-26T08:44:50.584Z,2.60
2018-05-26T08:45:50.600Z,2.80
2018-05-26T08:46:50.608Z,2.40
2018-05-26T08:47:50.622Z,2.30
2018-05-26T08:48:50.633Z,4.60
2018-05-26T08:49:50.644Z,2.40
2018-05-26T08:50:50.656Z,2.10
2018-05-26T08:51:50.665Z,2.60
2018-05-26T08:52:50.674Z,2.30
2018-05-26T08:53:50.693Z,3.30
2018-05-26T08:54:50.702Z,2.70
2018-05-26T08:55:50.713Z,2.90
2018-05-26T08:56:50.725Z,3.40
2018-05-26T08:57:50.733Z,3.00
2018-05-26T08:58:50.744Z,2.40
2018-05-26T08:59:50.751Z,2.40
2018-05-26T09:00:50.762Z,2.60
2018-05-26T09:01:50.773Z,3.90
2018-05-26T09:02:50.782Z,2.40
2018-05-26T09:03:50.792Z,4.60
2018-05-26T09:04:50.803Z,3.20
2018-05-26T09:05:50.811Z,2.40
2018-05-26T09:06:50.817Z,2.40
2018-05-26T09:07:50.828Z,2.50
2018-05-26T09:08:50.835Z,2.60
2018-05-26T09:09:50.865Z,2.60
2018-05-26T09:10:50.889Z,3.10
2018-05-26T09:11:50.858Z,2.50
2018-05-26T09:12:50.867Z,2.50
2018-05-26T09:13:50.877Z,2.60
2018-05-26T09:14:50.897Z,2.50
2018-05-26T09:15:50.887Z,2.30
2018-05-26T09:16:50.894Z,3.00
2018-05-26T09:17:50.945Z,2.50
2018-05-26T09:18:50.908Z,2.40
2018-05-26T09:19:50.916Z,2.70
2018-05-26T09:20:50.922Z,2.60
2018-05-26T09:21:50.938Z,2.90
2018-05-26T09:22:50.934Z,2.60
2018-05-26T09:23:50.949Z,4.90
2018-05-26T09:24:50.948Z,3.60
2018-05-26T09:25:50.953Z,3.70
2018-05-26T09:26:50.960Z,3.00
2018-05-26T09:27:50.965Z,3.40
2018-05-26T09:28:50.970Z,3.20
2018-05-26T09:29:50.977Z,2.90
2018-05-26T09:30:50.982Z,2.70
2018-05-26T09:31:50.987Z,2.80
2018-05-26T09:32:50.995Z,2.70
2018-05-26T09:33:51.005Z,4.40
2018-05-26T09:34:51.010Z,3.10
2018-05-26T09:35:51.012Z,3.30
2018-05-26T09:36:51.020Z,3.60
2018-05-26T09:37:51.024Z,5.10
2018-05-26T09:38:51.034Z,3.40
2018-05-26T09:39:51.037Z,4.60
2018-05-26T09:40:51.038Z,2.80
2018-05-26T09:41:51.043Z,2.70
2018-05-26T09:42:51.056Z,2.90
2018-05-26T09:43:51.054Z,3.50
2018-05-26T09:44:51.059Z,2.80
2018-05-26T09:45:51.065Z,3.40
2018-05-26T09:46:51.070Z,3.60
2018-05-26T09:47:51.074Z,3.50
2018-05-26T09:48:51.080Z,3.10
2018-05-26T09:49:51.098Z,2.90
2018-05-26T09:50:51.090Z,2.60
2018-05-26T09:51:51.090Z,2.70
2018-05-26T09:52:51.099Z,3.40
2018-05-26T09:53:51.103Z,3.60
2018-05-26T09:54:51.159Z,2.70
2018-05-26T09:55:51.112Z,2.60
2018-05-26T09:56:51.121Z,3.10
2018-05-26T09:57:51.123Z,5.00
2018-05-26T09:58:51.131Z,2.60
2018-05-26T09:59:51.137Z,2.90
2018-05-26T10:00:51.143Z,4.00
2018-05-26T10:01:51.149Z,3.90
2018-05-26T10:02:51.149Z,3.20
2018-05-26T10:03:51.154Z,3.10
2018-05-26T10:04:51.161Z,2.80
2018-05-26T10:05:51.164Z,3.80
2018-05-26T10:06:51.171Z,3.30
2018-05-26T10:07:51.173Z,2.80
2018-05-26T10:08:51.176Z,2.90
2018-05-26T10:09:51.181Z,2.90
2018-05-26T10:10:51.186Z,3.20
2018-05-26T10:11:51.191Z,2.80
2018-05-26T10:12:51.195Z,2.70
2018-05-26T10:13:51.197Z,3.30
2018-05-26T10:14:51.204Z,3.00
2018-05-26T10:15:51.209Z,2.80
2018-05-26T10:16:51.216Z,2.60
2018-05-26T10:17:51.221Z,3.90
2018-05-26T10:18:51.220Z,3.00
2018-05-26T10:19:51.254Z,3.00
2018-05-26T10:20:51.245Z,3.40
2018-05-26T10:21:51.235Z,2.70
2018-05-26T10:22:51.240Z,2.70
2018-05-26T10:23:51.245Z,2.90
2018-05-26T10:24:51.251Z,2.80
2018-05-26T10:25:51.260Z,3.40
2018-05-26T10:26:51.263Z,3.70
2018-05-26T10:27:51.267Z,3.00
2018-05-26T10:28:51.269Z,4.60
2018-05-26T10:29:51.274Z,3.00
2018-05-26T10:30:51.283Z,2.80
2018-05-26T10:31:51.283Z,3.00
2018-05-26T10:32:51.289Z,3.00
2018-05-26T10:33:51.295Z,3.60
2018-05-26T10:34:51.302Z,2.80
2018-05-26T10:35:51.309Z,2.90
2018-05-26T10:36:51.314Z,3.00
2018-05-26T10:37:51.317Z,2.80
2018-05-26T10:38:51.323Z,3.80
2018-05-26T10:39:51.326Z,2.70
2018-05-26T10:40:51.333Z,4.00
2018-05-26T10:41:51.337Z,4.20
2018-05-26T10:42:51.343Z,2.80
2018-05-26T10:43:51.348Z,3.10
2018-05-26T10:44:51.352Z,2.80
2018-05-26T10:45:51.356Z,4.10
2018-05-26T10:46:51.363Z,3.00
2018-05-26T10:47:51.367Z,3.00
2018-05-26T10:48:51.373Z,3.60
2018-05-26T10:49:51.379Z,3.00
2018-05-26T10:50:51.383Z,3.80
2018-05-26T10:51:51.394Z,2.70
2018-05-26T10:52:51.396Z,3.30
2018-05-26T10:53:51.396Z,2.80
2018-05-26T10:54:51.404Z,3.80
2018-05-26T10:55:51.439Z,2.80
2018-05-26T10:56:51.422Z,3.90
2018-05-26T10:57:51.425Z,5.10
2018-05-26T10:58:51.425Z,4.20
2018-05-26T10:59:51.427Z,3.20
2018-05-26T11:00:51.436Z,3.00
2018-05-26T11:01:51.443Z,2.70
2018-05-26T11:02:51.448Z,3.20
2018-05-26T11:03:51.454Z,5.10
2018-05-26T11:04:51.460Z,2.80
2018-05-26T11:05:51.461Z,3.10
2018-05-26T11:06:51.467Z,2.90
2018-05-26T11:07:51.471Z,4.50
2018-05-26T11:08:51.478Z,3.10
2018-05-26T11:09:51.483Z,2.70
2018-05-26T11:10:51.488Z,3.20
2018-05-26T11:11:51.494Z,2.60
2018-05-26T11:12:51.495Z,3.40
2018-05-26T11:13:51.500Z,2.80
2018-05-26T11:14:51.513Z,3.10
2018-05-26T11:15:51.514Z,2.80
2018-05-26T11:16:51.523Z,4.90
2018-05-26T11:17:51.625Z,3.10
2018-05-26T11:18:51.534Z,4.40
2018-05-26T11:19:51.536Z,3.00
2018-05-26T11:20:51.547Z,2.60
2018-05-26T11:21:51.549Z,3.30
2018-05-26T11:22:51.552Z,4.10
2018-05-26T11:23:51.561Z,2.70
2018-05-26T11:24:51.640Z,3.30
2018-05-26T11:25:51.565Z,2.50
2018-05-26T11:26:51.572Z,3.10
2018-05-26T11:27:51.578Z,2.60
2018-05-26T11:28:51.633Z,2.60
2018-05-26T11:29:51.611Z,4.60
2018-05-26T11:30:51.624Z,3.60
2018-05-26T11:31:51.603Z,3.10
2018-05-26T11:32:51.609Z,2.70
2018-05-26T11:33:51.615Z,4.60
2018-05-26T11:34:51.627Z,3.50
2018-05-26T11:35:51.631Z,3.50
2018-05-26T11:36:51.633Z,4.60
2018-05-26T11:37:51.640Z,2.70
2018-05-26T11:38:51.645Z,2.80
2018-05-26T11:39:51.657Z,2.90
2018-05-26T11:40:51.658Z,3.00
2018-05-26T11:41:51.670Z,5.00
2018-05-26T11:42:51.666Z,2.40
2018-05-26T11:43:51.672Z,3.00
2018-05-26T11:44:51.678Z,2.60
2018-05-26T11:45:51.685Z,2.50
2018-05-26T11:46:51.691Z,3.30
2018-05-26T11:47:51.695Z,2.70
2018-05-26T11:48:51.702Z,2.60
2018-05-26T11:49:51.715Z,2.60
2018-05-26T11:50:51.712Z,4.20
2018-05-26T11:51:51.717Z,3.00
2018-05-26T11:52:51.729Z,3.80
2018-05-26T11:53:51.730Z,2.60
2018-05-26T11:54:51.737Z,3.20
2018-05-26T11:55:51.744Z,3.30
2018-05-26T11:56:51.745Z,2.70
2018-05-26T11:57:51.750Z,3.20
2018-05-26T11:58:51.757Z,2.90
2018-05-26T11:59:51.761Z,2.60
2018-05-26T12:00:51.767Z,2.50
2018-05-26T12:01:51.785Z,3.20
2018-05-26T12:02:51.780Z,4.20
2018-05-26T12:03:51.783Z,3.30
2018-05-26T12:04:51.790Z,3.40
2018-05-26T12:05:51.795Z,2.80
2018-05-26T12:06:51.803Z,2.60
2018-05-26T12:07:51.810Z,2.60
2018-05-26T12:08:51.816Z,3.30
2018-05-26T12:09:51.819Z,3.60
2018-05-26T12:10:51.897Z,2.70
2018-05-26T12:11:51.828Z,2.80
2018-05-26T12:12:51.836Z,3.60
2018-05-26T12:13:51.841Z,2.90
2018-05-26T12:14:51.844Z,3.10
2018-05-26T12:15:51.850Z,3.50
2018-05-26T12:16:51.856Z,2.80
2018-05-26T12:17:51.864Z,3.10
2018-05-26T12:18:51.870Z,2.70
2018-05-26T12:19:51.876Z,2.80
2018-05-26T12:20:51.886Z,2.70
2018-05-26T12:21:51.888Z,3.30
2018-05-26T12:22:51.894Z,2.90
2018-05-26T12:23:51.901Z,3.60
2018-05-26T12:24:51.907Z,2.80
2018-05-26T12:25:51.911Z,3.40
2018-05-26T12:26:51.982Z,2.70
2018-05-26T12:27:51.925Z,3.30
2018-05-26T12:28:51.932Z,3.80
2018-05-26T12:29:51.937Z,2.80
2018-05-26T12:30:51.949Z,2.70
2018-05-26T12:31:51.954Z,2.80
2018-05-26T12:32:51.955Z,4.30
2018-05-26T12:33:51.961Z,2.80
2018-05-26T12:34:51.967Z,2.90
2018-05-26T12:35:51.973Z,2.40
2018-05-26T12:36:51.980Z,4.00
2018-05-26T12:37:51.985Z,2.70
2018-05-26T12:38:51.996Z,2.50
2018-05-26T12:39:51.998Z,3.70
2018-05-26T12:40:52.003Z,2.40
2018-05-26T12:41:52.011Z,3.10
2018-05-26T12:42:52.018Z,2.50
2018-05-26T12:43:52.024Z,2.60
2018-05-26T12:44:52.031Z,2.60
2018-05-26T12:45:52.037Z,2.60
2018-05-26T12:46:52.042Z,2.60
2018-05-26T12:47:52.056Z,3.10
2018-05-26T12:48:52.054Z,2.50
2018-05-26T12:49:52.060Z,2.70
2018-05-26T12:50:52.067Z,2.40
2018-05-26T12:51:52.072Z,2.90
2018-05-26T12:52:52.079Z,2.30
2018-05-26T12:53:52.084Z,2.60
2018-05-26T12:54:52.094Z,3.60
2018-05-26T12:55:52.098Z,2.30
2018-05-26T12:56:52.112Z,3.00
2018-05-26T12:57:52.114Z,3.10
2018-05-26T12:58:52.117Z,2.60
2018-05-26T12:59:52.191Z,2.50
2018-05-26T13:00:52.131Z,2.50
2018-05-26T13:01:52.136Z,2.60
2018-05-26T13:02:52.145Z,3.10
2018-05-26T13:03:52.150Z,2.60
2018-05-26T13:04:52.156Z,2.60
2018-05-26T13:05:52.164Z,2.90
2018-05-26T13:06:52.169Z,3.50
2018-05-26T13:07:52.179Z,2.80
2018-05-26T13:08:52.187Z,3.10
2018-05-26T13:09:52.194Z,2.40
2018-05-26T13:10:52.201Z,2.90
2018-05-26T13:11:52.211Z,2.50
2018-05-26T13:12:52.215Z,4.10
2018-05-26T13:13:52.222Z,2.50
2018-05-26T13:14:52.229Z,2.90
2018-05-26T13:15:52.234Z,2.70
2018-05-26T13:16:52.242Z,2.40
2018-05-26T13:17:52.248Z,2.50
2018-05-26T13:18:52.258Z,2.50